Time;durP1;ratioP1;P1;durP2;ratioP2;P2;SDS_P1;SDS_P2;PMS_P1;PMS_P2;Temp;Humidity;BMP_temperature;BMP_pressure;BME280_temperature;BME280_humidity;BME280_pressure;Samples;Min_cycle;Max_cycle;Signal;HPM_P1;HPM_P2
2023/12/04 00:02:57;;;;;;;16.33;2.60;;;;;;;17.69;100.00;101244.31;10571153;27;20048;-73
2023/12/04 00:08:20;;;;;;;11.65;2.80;;;;;;;17.70;100.00;101248.75;10555732;27;20056;-73
2023/12/04 00:13:44;;;;;;;10.35;2.92;;;;;;;17.76;100.00;101246.03;10572004;27;20070;-72
2023/12/04 00:19:06;;;;;;;9.93;2.90;;;;;;;17.77;100.00;101247.81;10606319;27;20111;-73
2023/12/04 00:24:29;;;;;;;11.63;2.70;;;;;;;17.90;100.00;101249.53;10569841;27;20075;-73
2023/12/04 00:29:53;;;;;;;9.23;2.50;;;;;;;17.79;100.00;101246.00;10588959;27;20581;-73
2023/12/04 00:35:15;;;;;;;10.10;2.72;;;;;;;17.79;100.00;101238.00;10566749;27;20047;-73
2023/12/04 00:40:37;;;;;;;9.30;2.70;;;;;;;17.84;100.00;101243.31;10602742;27;20067;-73
2023/12/04 00:46:01;;;;;;;10.18;2.50;;;;;;;17.90;100.00;101251.31;10583037;27;20108;-73
2023/12/04 00:51:24;;;;;;;9.95;3.47;;;;;;;18.01;100.00;101249.44;10551617;27;20048;-73
2023/12/04 00:56:46;;;;;;;8.75;3.15;;;;;;;18.05;100.00;101245.81;10562172;27;20044;-73
2023/12/04 01:02:10;;;;;;;7.25;2.72;;;;;;;17.94;100.00;101242.34;10577207;27;20099;-73
2023/12/04 01:07:33;;;;;;;13.40;3.63;;;;;;;17.91;100.00;101247.75;10589168;27;20061;-73
2023/12/04 01:12:55;;;;;;;9.23;3.10;;;;;;;17.84;100.00;101236.19;10569435;28;20132;-73
2023/12/04 01:18:19;;;;;;;16.63;2.75;;;;;;;17.77;100.00;101245.16;10578076;27;20045;-72
2023/12/04 01:23:41;;;;;;;9.15;3.08;;;;;;;17.68;100.00;101245.19;10579905;27;20051;-73
2023/12/04 01:29:03;;;;;;;14.48;3.47;;;;;;;17.59;100.00;101247.00;10581052;27;20047;-73
2023/12/04 01:34:27;;;;;;;12.65;2.90;;;;;;;17.52;100.00;101247.00;10581394;27;20051;-73
2023/12/04 01:39:50;;;;;;;10.98;3.35;;;;;;;17.32;100.00;101240.91;10601048;27;20550;-73
2023/12/04 01:45:12;;;;;;;10.65;4.22;;;;;;;17.32;100.00;101242.69;10587854;27;20092;-73
2023/12/04 01:50:36;;;;;;;7.25;3.03;;;;;;;17.29;100.00;101243.56;10597241;27;20139;-73
2023/12/04 01:55:59;;;;;;;18.38;3.38;;;;;;;17.31;100.00;101240.91;10579491;27;20043;-73
2023/12/04 02:01:22;;;;;;;5.28;2.22;;;;;;;17.38;100.00;101242.66;10585785;27;20049;-73
2023/12/04 02:06:46;;;;;;;12.65;2.55;;;;;;;17.43;100.00;101239.06;10562466;27;20059;-73
2023/12/04 02:12:09;;;;;;;12.07;3.00;;;;;;;17.30;100.00;101240.00;10577746;27;20112;-73
2023/12/04 02:17:33;;;;;;;10.52;2.85;;;;;;;17.22;100.00;101230.25;10560780;27;20401;-72
2023/12/04 02:22:57;;;;;;;7.40;2.50;;;;;;;17.09;100.00;101240.97;10597150;27;20092;-73
2023/12/04 02:28:22;;;;;;;6.22;2.63;;;;;;;17.18;100.00;101236.50;10577231;27;20135;-73
2023/12/04 02:33:46;;;;;;;7.78;2.60;;;;;;;17.21;100.00;101234.72;10586390;27;20051;-73
2023/12/04 02:39:09;;;;;;;7.78;3.17;;;;;;;17.12;100.00;101242.75;10557676;28;20043;-73
2023/12/04 02:44:32;;;;;;;9.75;2.80;;;;;;;17.21;100.00;101237.38;10590492;27;20050;-73
2023/12/04 02:49:55;;;;;;;11.82;2.67;;;;;;;17.18;100.00;101252.53;10578996;27;20043;-73
2023/12/04 02:55:17;;;;;;;10.27;2.53;;;;;;;17.12;100.00;101250.78;10566281;27;20036;-73
2023/12/04 03:00:41;;;;;;;12.35;3.00;;;;;;;17.05;100.00;101262.34;10592319;27;20081;-73
2023/12/04 03:06:04;;;;;;;8.05;2.75;;;;;;;17.11;100.00;101267.66;10567398;28;20116;-73
2023/12/04 03:11:28;;;;;;;10.32;3.35;;;;;;;17.07;100.00;101264.09;10562241;28;20039;-73
2023/12/04 03:16:52;;;;;;;6.10;3.03;;;;;;;17.06;100.00;101267.69;10559532;28;20075;-72
2023/12/04 03:22:15;;;;;;;7.97;2.58;;;;;;;16.84;100.00;101273.06;10587423;27;20051;-73
2023/12/04 03:27:37;;;;;;;8.85;2.53;;;;;;;16.53;100.00;101267.75;10579909;27;20048;-73
2023/12/04 03:33:01;;;;;;;8.65;2.78;;;;;;;16.49;100.00;101273.94;10609235;27;20130;-73
2023/12/04 03:38:23;;;;;;;9.80;3.50;;;;;;;16.66;100.00;101269.53;10582515;27;20157;-73
2023/12/04 03:43:46;;;;;;;11.07;3.03;;;;;;;16.71;100.00;101272.19;10587767;27;20051;-73
2023/12/04 03:49:10;;;;;;;6.18;2.90;;;;;;;16.71;100.00;101280.19;10577678;27;20127;-73
2023/12/04 03:54:33;;;;;;;6.78;3.70;;;;;;;16.61;100.00;101284.63;10578947;27;20051;-73
2023/12/04 03:59:55;;;;;;;6.63;2.63;;;;;;;16.65;100.00;101288.19;10576385;27;20059;-73
2023/12/04 04:05:19;;;;;;;5.53;2.75;;;;;;;16.61;100.00;101292.63;10588850;27;20058;-73
2023/12/04 04:10:41;;;;;;;9.57;3.05;;;;;;;16.48;100.00;101297.94;10564866;28;20147;-73
2023/12/04 04:16:04;;;;;;;7.10;3.20;;;;;;;16.27;100.00;101282.84;10579002;27;20082;-72
2023/12/04 04:21:28;;;;;;;9.25;3.17;;;;;;;16.20;100.00;101289.06;10595914;27;20111;-72
2023/12/04 04:26:50;;;;;;;8.32;2.97;;;;;;;16.23;100.00;101289.03;10597935;27;20043;-73
2023/12/04 04:32:13;;;;;;;6.03;3.05;;;;;;;16.26;100.00;101297.06;10590497;27;20063;-73
2023/12/04 04:37:36;;;;;;;11.15;3.90;;;;;;;16.29;100.00;101297.03;10575102;27;20096;-73
2023/12/04 04:42:59;;;;;;;7.43;3.10;;;;;;;15.98;100.00;101306.75;10575112;27;20134;-73
2023/12/04 04:48:21;;;;;;;5.63;3.38;;;;;;;15.75;100.00;101312.00;10602297;27;20108;-72
2023/12/04 04:53:45;;;;;;;25.75;13.18;;;;;;;16.07;100.00;101317.44;10585497;27;20067;-73
2023/12/04 04:59:07;;;;;;;13.25;6.25;;;;;;;16.01;100.00;101319.22;10586396;27;20039;-73
2023/12/04 05:04:30;;;;;;;12.52;6.30;;;;;;;15.94;100.00;101326.28;10600072;27;20108;-72
2023/12/04 05:09:54;;;;;;;12.30;5.88;;;;;;;15.83;100.00;101323.56;10564203;27;20100;-72
2023/12/04 05:15:16;;;;;;;13.07;4.55;;;;;;;16.11;100.00;101328.97;10592535;27;20051;-72
2023/12/04 05:20:38;;;;;;;10.32;4.05;;;;;;;16.00;100.00;101330.75;10588926;27;20054;-72
2023/12/04 05:26:02;;;;;;;10.85;4.80;;;;;;;15.84;100.00;101329.78;10589132;27;20053;-72
2023/12/04 05:31:25;;;;;;;11.15;7.38;;;;;;;16.03;100.00;101333.41;10595950;27;20058;-73
2023/12/04 05:36:47;;;;;;;6.82;4.43;;;;;;;16.21;100.00;101341.47;10560726;27;20066;-73
2023/12/04 05:42:11;;;;;;;13.73;6.78;;;;;;;15.91;100.00;101347.56;10565920;27;20051;-73
2023/12/04 05:47:34;;;;;;;19.00;9.00;;;;;;;15.92;100.00;101334.28;10565173;27;20043;-73
2023/12/04 05:52:56;;;;;;;13.45;6.32;;;;;;;16.12;100.00;101336.09;10566629;27;20075;-73
2023/12/04 05:58:21;;;;;;;33.72;22.45;;;;;;;16.21;100.00;101339.66;10553987;27;20075;-73
2023/12/04 06:03:43;;;;;;;35.35;25.52;;;;;;;16.32;100.00;101343.25;10581021;27;20055;-73
2023/12/04 06:09:08;;;;;;;16.92;10.55;;;;;;;16.67;100.00;101347.75;10574609;27;20047;-73
2023/12/04 06:14:32;;;;;;;16.83;4.38;;;;;;;16.92;100.00;101346.84;10576608;27;20194;-73
2023/12/04 06:19:54;;;;;;;12.93;3.67;;;;;;;19.62;100.00;101344.25;10595379;27;20132;-74
2023/12/04 06:25:17;;;;;;;7.07;2.95;;;;;;;22.09;100.00;101347.19;10580252;27;20140;-73
2023/12/04 06:30:43;;;;;;;16.50;7.30;;;;;;;22.62;100.00;101350.44;10589774;27;20158;-73
2023/12/04 06:36:08;;;;;;;8.80;5.30;;;;;;;23.70;100.00;101358.34;10583410;27;20043;-76
2023/12/04 06:41:31;;;;;;;18.23;10.25;;;;;;;24.90;94.86;101365.41;10587907;27;20500;-72
2023/12/04 06:46:56;;;;;;;23.40;13.88;;;;;;;25.75;85.60;101367.78;10599946;27;20089;-73
2023/12/04 06:52:18;;;;;;;18.27;15.60;;;;;;;26.20;82.36;101382.25;10580578;27;20044;-72
2023/12/04 06:57:41;;;;;;;18.15;15.18;;;;;;;27.06;73.59;101373.38;10572552;27;20095;-73
2023/12/04 07:03:04;;;;;;;18.15;13.88;;;;;;;28.15;65.77;101382.03;10599496;27;20039;-73
2023/12/04 07:08:27;;;;;;;24.27;18.23;;;;;;;29.59;57.06;101391.06;10596641;27;20055;-74
2023/12/04 07:13:49;;;;;;;11.70;7.72;;;;;;;30.01;51.95;101384.25;10583233;28;20074;-74
2023/12/04 07:19:14;;;;;;;8.35;4.90;;;;;;;29.80;54.65;101388.16;10579290;27;20047;-73
2023/12/04 07:24:36;;;;;;;10.75;3.20;;;;;;;29.54;54.91;101397.69;10581398;28;20051;-72
2023/12/04 07:29:59;;;;;;;7.40;3.10;;;;;;;29.11;55.12;101399.03;10599179;27;20047;-72
2023/12/04 07:35:23;;;;;;;9.18;2.20;;;;;;;28.19;57.19;101404.50;10582709;28;20457;-74
2023/12/04 07:40:46;;;;;;;7.13;1.90;;;;;;;27.81;56.75;101400.81;10598845;28;20202;-73
2023/12/04 07:46:10;;;;;;;6.68;2.08;;;;;;;27.20;61.05;101400.78;10557529;28;20083;-74
2023/12/04 07:51:35;;;;;;;7.95;2.25;;;;;;;26.13;66.77;101413.22;10599889;28;20889;-74
2023/12/04 07:56:57;;;;;;;9.65;2.47;;;;;;;26.31;69.48;101416.19;10599888;28;20100;-74
2023/12/04 08:02:19;;;;;;;6.50;1.80;;;;;;;27.81;59.02;101408.97;10599195;28;20043;-74
2023/12/04 08:07:43;;;;;;;6.90;2.30;;;;;;;29.30;49.99;101408.88;10601189;27;20510;-74
2023/12/04 08:13:05;;;;;;;6.45;2.63;;;;;;;29.02;49.23;101416.69;10603240;27;20054;-74
2023/12/04 08:18:28;;;;;;;6.88;2.13;;;;;;;29.86;46.52;101402.31;10606028;27;20031;-75
2023/12/04 08:23:52;;;;;;;6.78;1.92;;;;;;;29.91;46.38;101394.78;10588624;27;20646;-74
2023/12/04 08:29:14;;;;;;;7.10;2.15;;;;;;;31.37;42.73;101391.81;10605779;27;20046;-74
2023/12/04 08:34:37;;;;;;;7.70;1.98;;;;;;;31.78;40.58;101380.16;10591522;27;20401;-72
2023/12/04 08:40:02;;;;;;;7.22;1.83;;;;;;;32.40;38.21;101385.25;10584154;27;20039;-73
2023/12/04 08:45:25;;;;;;;9.80;2.65;;;;;;;31.62;38.95;101378.41;10601366;27;20047;-73
2023/12/04 08:50:48;;;;;;;8.70;2.65;;;;;;;31.51;38.12;101369.97;10587460;27;20595;-73
2023/12/04 08:56:12;;;;;;;7.75;2.67;;;;;;;31.10;38.63;101371.63;10583044;27;20617;-73
2023/12/04 09:01:35;;;;;;;7.45;2.50;;;;;;;30.61;38.26;101365.44;10584746;27;20040;-72
2023/12/04 09:06:57;;;;;;;5.15;2.45;;;;;;;31.21;37.41;101360.94;10582915;27;20293;-75
2023/12/04 09:12:21;;;;;;;5.15;1.67;;;;;;;31.29;37.37;101347.72;10585783;27;20040;-75
2023/12/04 09:17:43;;;;;;;7.68;1.90;;;;;;;31.72;35.79;101347.78;10583209;27;20068;-74
2023/12/04 09:23:05;;;;;;;7.40;1.80;;;;;;;31.99;35.40;101352.38;10595607;27;20039;-75
2023/12/04 09:28:29;;;;;;;5.70;1.35;;;;;;;31.06;35.67;101343.66;10584737;27;20051;-74
2023/12/04 09:33:52;;;;;;;4.13;1.90;;;;;;;30.75;36.98;101341.84;10583740;27;20128;-74
2023/12/04 09:39:14;;;;;;;4.68;1.42;;;;;;;32.06;34.37;101340.06;10597460;27;20533;-73
2023/12/04 09:44:38;;;;;;;4.57;1.42;;;;;;;32.80;32.63;101330.66;10602326;27;20062;-72
2023/12/04 09:50:01;;;;;;;3.75;1.45;;;;;;;31.85;33.80;101333.25;10583204;27;20051;-73
2023/12/04 09:55:24;;;;;;;2.42;1.23;;;;;;;33.11;32.54;101346.72;10586781;27;20408;-73
2023/12/04 10:00:48;;;;;;;6.43;2.08;;;;;;;33.99;32.74;101340.47;10596891;27;20049;-73
2023/12/04 10:06:16;;;;;;;10.38;2.67;;;;;;;33.09;34.35;101342.31;10584160;27;20074;-74
2023/12/04 10:11:41;;;;;;;5.05;2.20;;;;;;;32.49;35.53;101328.22;10597485;27;20395;-75
2023/12/04 10:17:17;;;;;;;8.63;2.70;;;;;;;30.52;38.77;101322.38;10590521;27;20046;-72
2023/12/04 10:22:41;;;;;;;11.13;3.13;;;;;;;28.34;43.06;101325.00;10602100;27;20049;-71
2023/12/04 10:28:11;;;;;;;9.13;2.63;;;;;;;27.00;46.65;101331.16;10587140;27;20078;-73
2023/12/04 10:33:35;;;;;;;9.57;2.90;;;;;;;26.26;50.13;101331.53;10598099;27;20070;-72
2023/12/04 10:39:00;;;;;;;7.68;2.80;;;;;;;25.80;53.49;101325.19;10587163;27;20255;-72
2023/12/04 10:44:23;;;;;;;13.18;2.13;;;;;;;25.72;55.85;101317.41;10590389;27;20589;-72
2023/12/04 10:49:49;;;;;;;7.25;2.17;;;;;;;25.74;56.57;101314.59;10600830;27;20633;-72
2023/12/04 10:55:13;;;;;;;6.13;1.75;;;;;;;25.30;61.28;101316.25;10571395;28;20052;-71
2023/12/04 11:00:37;;;;;;;4.97;1.95;;;;;;;24.93;64.99;101312.16;10576991;27;20460;-72
2023/12/04 11:06:04;;;;;;;7.07;2.20;;;;;;;24.71;68.36;101305.69;10580515;27;20047;-71
2023/12/04 11:11:32;;;;;;;7.05;1.85;;;;;;;24.62;71.03;101293.38;10599262;28;20075;-74
2023/12/04 11:17:03;;;;;;;8.50;1.88;;;;;;;24.40;73.52;101284.25;10593510;28;20130;-74
2023/12/04 11:22:27;;;;;;;5.93;1.95;;;;;;;24.26;79.11;101286.50;10581559;28;20093;-74
2023/12/04 11:27:49;;;;;;;4.22;1.88;;;;;;;24.37;80.78;101291.53;10586580;28;20055;-74
2023/12/04 11:33:12;;;;;;;6.93;2.00;;;;;;;25.23;71.94;101277.75;10590322;28;20051;-74
2023/12/04 11:38:36;;;;;;;10.25;2.78;;;;;;;24.46;76.75;101275.94;10590441;28;20508;-76
2023/12/04 11:43:58;;;;;;;10.65;2.55;;;;;;;24.15;82.39;101272.47;10595871;27;20425;-75
2023/12/04 11:49:31;;;;;;;7.00;1.92;;;;;;;24.15;84.23;101275.16;10608169;27;20146;-75
2023/12/04 11:55:00;;;;;;;6.90;2.00;;;;;;;24.18;84.07;101278.63;10591752;27;20046;-76
2023/12/04 12:00:24;;;;;;;4.13;1.80;;;;;;;24.20;84.47;101275.91;10603627;27;20062;-75
2023/12/04 12:05:50;;;;;;;8.75;4.00;;;;;;;24.77;79.89;101266.78;10602432;27;20043;-74
2023/12/04 12:11:14;;;;;;;5.93;2.47;;;;;;;25.34;74.70;101259.28;10603735;27;20127;-74
2023/12/04 12:16:36;;;;;;;5.53;1.83;;;;;;;25.95;70.77;101265.06;10603616;27;20055;-74
2023/12/04 12:21:58;;;;;;;5.20;2.17;;;;;;;25.97;69.69;101268.63;10604462;27;20147;-74
2023/12/04 12:27:22;;;;;;;7.55;2.35;;;;;;;25.91;69.97;101260.75;10604789;27;20054;-73
2023/12/04 12:32:44;;;;;;;7.18;2.10;;;;;;;25.51;71.64;101263.19;10601776;27;20461;-74
2023/12/04 12:38:07;;;;;;;7.82;2.20;;;;;;;25.41;72.67;101262.66;10591666;27;20043;-73
2023/12/04 12:43:31;;;;;;;8.52;2.55;;;;;;;25.10;69.93;101260.22;10603922;27;20054;-75
2023/12/04 12:48:53;;;;;;;5.78;2.10;;;;;;;24.75;72.11;101263.25;10605252;27;20108;-74
2023/12/04 12:54:16;;;;;;;8.43;2.20;;;;;;;24.25;78.91;101267.66;10598141;27;20134;-72
2023/12/04 12:59:40;;;;;;;5.38;2.50;;;;;;;23.60;85.75;101267.88;10562668;28;20050;-70
2023/12/04 13:05:04;;;;;;;6.63;2.30;;;;;;;23.12;89.02;101260.25;10593182;27;20136;-71
2023/12/04 13:10:26;;;;;;;8.02;2.20;;;;;;;22.92;91.64;101268.00;10548320;28;20481;-71
2023/12/04 13:15:50;;;;;;;7.43;2.20;;;;;;;22.84;93.00;101264.66;10604249;27;20099;-71
2023/12/04 13:21:13;;;;;;;5.78;1.67;;;;;;;22.65;92.52;101258.81;10580934;27;20054;-71
2023/12/04 13:26:35;;;;;;;7.95;2.10;;;;;;;22.47;94.01;101265.56;10593760;27;20051;-71
2023/12/04 13:32:00;;;;;;;8.93;1.95;;;;;;;22.21;96.80;101263.53;10588863;27;20046;-71
2023/12/04 13:37:23;;;;;;;6.97;2.10;;;;;;;22.04;99.33;101276.50;10601362;27;20134;-71
2023/12/04 13:48:26;;;;;;;4.88;1.83;;;;;;;21.64;100.00;101278.28;10586858;27;20130;-72
2023/12/04 13:53:55;;;;;;;11.02;1.85;;;;;;;21.40;100.00;101283.22;10568313;27;20503;-72
2023/12/04 13:59:19;;;;;;;6.97;2.17;;;;;;;21.36;100.00;101286.03;10582746;27;20042;-72
2023/12/04 14:04:43;;;;;;;5.57;2.22;;;;;;;21.35;100.00;101287.81;10602864;27;20053;-72
2023/12/04 14:10:08;;;;;;;9.13;2.50;;;;;;;21.28;100.00;101287.97;10585845;27;20111;-72
2023/12/04 14:15:30;;;;;;;11.32;2.28;;;;;;;21.15;100.00;101286.41;10546273;28;20047;-72
2023/12/04 14:20:54;;;;;;;5.38;2.35;;;;;;;20.91;100.00;101291.34;10567815;27;20051;-72
2023/12/04 14:26:18;;;;;;;9.63;2.33;;;;;;;20.73;100.00;101288.13;10580965;27;20047;-72
2023/12/04 14:31:40;;;;;;;16.45;6.88;;;;;;;20.59;100.00;101285.66;10565696;27;20107;-72
2023/12/04 14:37:04;;;;;;;18.25;8.27;;;;;;;20.43;100.00;101285.03;10590226;27;20470;-72
2023/12/04 14:42:28;;;;;;;16.13;5.18;;;;;;;20.23;100.00;101284.41;10583601;27;20046;-72
2023/12/04 14:47:52;;;;;;;30.70;16.55;;;;;;;19.95;100.00;101292.03;10566026;27;20047;-71
2023/12/04 14:53:28;;;;;;;22.85;10.88;;;;;;;19.78;100.00;101289.56;10559536;28;20134;-72
2023/12/04 14:59:19;;;;;;;21.52;9.75;;;;;;;19.60;100.00;101292.50;10558972;28;20562;-71
2023/12/04 15:16:20;;;;;;;8.68;3.58;;;;;;;19.16;100.00;101292.13;10567134;27;20197;-72
2023/12/04 15:21:42;;;;;;;11.82;5.57;;;;;;;18.99;100.00;101295.84;10605060;27;20624;-71
2023/12/04 15:27:06;;;;;;;9.68;5.18;;;;;;;18.82;100.00;101294.25;10585626;27;20059;-71
2023/12/04 15:32:28;;;;;;;11.90;4.25;;;;;;;18.69;100.00;101288.13;10581006;27;20093;-72
2023/12/04 15:37:51;;;;;;;12.63;6.20;;;;;;;18.25;100.00;101296.47;10606580;27;20529;-71
2023/12/04 15:43:16;;;;;;;13.32;6.63;;;;;;;17.75;100.00;101305.69;10557410;27;20124;-72
2023/12/04 15:48:39;;;;;;;21.10;14.07;;;;;;;17.55;100.00;101307.53;10587118;27;20138;-72
2023/12/04 15:54:01;;;;;;;16.80;10.77;;;;;;;17.41;100.00;101312.91;10568212;28;20052;-71
2023/12/04 15:59:25;;;;;;;14.68;5.63;;;;;;;17.09;100.00;101317.47;10578727;28;20116;-72
2023/12/04 16:04:47;;;;;;;9.82;4.95;;;;;;;17.26;100.00;101322.78;10579076;28;20052;-71
2023/12/04 16:10:11;;;;;;;19.80;9.18;;;;;;;17.21;100.00;101325.44;10578375;28;20157;-74
2023/12/04 16:15:34;;;;;;;12.63;8.13;;;;;;;17.10;100.00;101333.47;10564798;28;20044;-79
2023/12/04 16:20:57;;;;;;;14.32;7.22;;;;;;;16.85;100.00;101339.75;10565054;28;20044;-77
2023/12/04 16:26:20;;;;;;;11.60;6.00;;;;;;;16.69;100.00;101346.84;10565483;28;20055;-79
2023/12/04 16:31:43;;;;;;;12.20;6.20;;;;;;;16.94;100.00;101339.72;10577572;28;20446;-77
2023/12/04 16:37:06;;;;;;;43.83;20.48;;;;;;;16.95;100.00;101335.25;10578075;28;20142;-77
2023/12/04 16:42:28;;;;;;;48.80;26.40;;;;;;;16.69;100.00;101341.50;10577599;28;20101;-77
2023/12/04 16:47:52;;;;;;;38.47;27.23;;;;;;;16.48;100.00;101349.47;10577609;28;20146;-82
2023/12/04 16:53:14;;;;;;;9.65;5.68;;;;;;;16.48;100.00;101356.56;10566306;27;20138;-80
2023/12/04 16:58:37;;;;;;;10.88;6.53;;;;;;;16.27;100.00;101369.00;10563642;28;20108;-82
2023/12/04 17:04:01;;;;;;;11.40;5.80;;;;;;;16.24;100.00;101366.31;10547961;28;20059;-77
2023/12/04 17:09:23;;;;;;;13.27;7.45;;;;;;;16.33;100.00;101370.78;10547882;28;20107;-76
2023/12/04 17:14:45;;;;;;;22.17;14.05;;;;;;;16.47;100.00;101369.03;10563427;28;20044;-77
2023/12/04 17:20:11;;;;;;;19.48;9.63;;;;;;;16.54;100.00;101373.44;10549052;28;20097;-76
2023/12/04 17:25:36;;;;;;;31.00;24.77;;;;;;;16.54;100.00;101383.25;10536360;28;20055;-77
2023/12/04 17:30:58;;;;;;;15.23;13.35;;;;;;;16.52;100.00;101388.56;10565646;27;20354;-78
2023/12/04 17:36:22;;;;;;;15.57;8.65;;;;;;;16.53;100.00;101390.34;10556843;28;20532;-77
2023/12/04 17:41:46;;;;;;;11.60;7.60;;;;;;;16.66;100.00;101381.53;10543822;28;20108;-77
2023/12/04 17:47:09;;;;;;;10.82;6.38;;;;;;;16.48;100.00;101385.88;10597135;27;20039;-75
2023/12/04 17:52:33;;;;;;;10.90;5.68;;;;;;;16.44;100.00;101392.09;10601472;27;20051;-77
2023/12/04 17:57:55;;;;;;;11.80;6.85;;;;;;;16.78;100.00;101385.06;10585678;27;20518;-74
2023/12/04 18:03:18;;;;;;;14.75;7.78;;;;;;;17.04;100.00;101397.50;10587588;27;20054;-75
2023/12/04 18:08:43;;;;;;;20.75;11.70;;;;;;;17.18;100.00;101391.28;10593175;27;20142;-76
2023/12/04 18:14:06;;;;;;;14.35;9.80;;;;;;;17.30;100.00;101401.94;10601164;27;20043;-75
2023/12/04 18:19:28;;;;;;;29.55;17.02;;;;;;;17.43;100.00;101398.34;10596615;27;20500;-76
2023/12/04 18:24:53;;;;;;;13.82;7.82;;;;;;;17.23;100.00;101392.16;10586450;27;20059;-76
2023/12/04 18:30:18;;;;;;;14.10;8.63;;;;;;;16.84;100.00;101387.72;10601468;27;20054;-76
2023/12/04 18:35:42;;;;;;;16.67;11.82;;;;;;;16.57;100.00;101389.47;10586263;27;20432;-77
2023/12/04 18:41:07;;;;;;;16.27;7.30;;;;;;;16.27;100.00;101376.09;10586307;27;20059;-75
2023/12/04 18:46:30;;;;;;;32.83;18.50;;;;;;;16.07;100.00;101384.03;10596325;27;20047;-75
2023/12/04 18:51:53;;;;;;;12.13;7.22;;;;;;;16.01;100.00;101378.69;10585509;27;20074;-74
2023/12/04 18:57:17;;;;;;;29.45;16.77;;;;;;;15.97;100.00;101378.66;10566171;27;20055;-75
2023/12/04 19:02:40;;;;;;;46.33;28.77;;;;;;;15.95;100.00;101375.97;10567669;27;20046;-75
2023/12/04 19:08:02;;;;;;;10.50;5.55;;;;;;;15.87;100.00;101378.66;10567612;28;20055;-75
2023/12/04 19:13:26;;;;;;;10.52;5.32;;;;;;;15.73;100.00;101396.31;10566956;28;20051;-75
2023/12/04 19:18:49;;;;;;;14.88;8.90;;;;;;;15.88;100.00;101390.19;10553409;28;20471;-76
2023/12/04 19:24:11;;;;;;;10.55;4.75;;;;;;;15.75;100.00;101394.53;10558543;28;20497;-76
2023/12/04 19:29:35;;;;;;;13.90;6.72;;;;;;;15.71;100.00;101399.84;10569277;28;20580;-75
2023/12/04 19:34:57;;;;;;;11.07;6.25;;;;;;;15.81;100.00;101399.91;10563469;28;20055;-75
2023/12/04 19:40:20;;;;;;;8.93;4.90;;;;;;;15.54;100.00;101400.66;10573626;28;20052;-76
2023/12/04 19:45:44;;;;;;;13.23;8.88;;;;;;;15.45;100.00;101399.69;10574890;28;20075;-76
2023/12/04 19:51:07;;;;;;;14.45;7.10;;;;;;;15.76;100.00;101400.75;10590104;28;20036;-76
2023/12/04 19:56:29;;;;;;;14.00;7.38;;;;;;;15.94;100.00;101398.19;10576129;28;20051;-76
2023/12/04 20:01:53;;;;;;;19.80;12.77;;;;;;;16.04;100.00;101392.00;10567467;28;20396;-76
2023/12/04 20:07:16;;;;;;;11.45;7.28;;;;;;;16.13;100.00;101391.16;10584919;27;20049;-75
2023/12/04 20:12:39;;;;;;;17.02;3.83;;;;;;;16.26;100.00;101399.19;10605804;27;20078;-75
2023/12/04 20:18:03;;;;;;;13.90;7.65;;;;;;;16.44;100.00;101400.09;10578595;27;20047;-76
2023/12/04 20:23:25;;;;;;;44.25;24.38;;;;;;;16.54;100.00;101394.78;10603490;27;20185;-76
2023/12/04 20:28:48;;;;;;;11.70;5.70;;;;;;;16.51;100.00;101397.44;10606792;27;20108;-76
2023/12/04 20:34:12;;;;;;;22.70;11.57;;;;;;;16.62;100.00;101392.16;10589856;27;20111;-77
2023/12/04 20:39:36;;;;;;;14.93;6.40;;;;;;;16.90;100.00;101395.72;10606165;27;20175;-76
2023/12/04 20:44:58;;;;;;;9.57;5.38;;;;;;;16.83;100.00;101401.94;10605742;27;20054;-76
2023/12/04 20:50:22;;;;;;;25.73;13.00;;;;;;;16.83;100.00;101393.94;10588087;27;20043;-76
2023/12/04 20:55:46;;;;;;;14.95;6.35;;;;;;;17.05;100.00;101390.41;10586278;27;20044;-76
2023/12/04 21:01:15;;;;;;;10.82;5.30;;;;;;;17.10;100.00;101397.50;10587009;27;20484;-76
2023/12/04 21:06:39;;;;;;;22.00;11.45;;;;;;;17.11;100.00;101401.94;10596489;27;20134;-76
2023/12/04 21:12:02;;;;;;;10.23;4.40;;;;;;;17.07;100.00;101402.81;10563622;28;20051;-76
2023/12/04 21:17:24;;;;;;;12.50;3.90;;;;;;;16.68;100.00;101394.81;10552229;28;20047;-76
2023/12/04 21:22:48;;;;;;;13.05;4.20;;;;;;;16.42;100.00;101392.09;10573015;27;20532;-76
2023/12/04 21:28:11;;;;;;;9.80;6.13;;;;;;;16.27;100.00;101389.41;10590254;27;20426;-76
2023/12/04 21:33:33;;;;;;;13.98;5.68;;;;;;;16.14;100.00;101395.59;10604353;27;20146;-76
2023/12/04 21:38:57;;;;;;;10.25;4.88;;;;;;;16.06;100.00;101384.03;10601071;27;20480;-76
2023/12/04 21:44:19;;;;;;;10.13;5.30;;;;;;;15.76;100.00;101379.47;10588867;27;20065;-76
2023/12/04 21:49:43;;;;;;;88.63;49.22;;;;;;;15.68;100.00;101382.13;10532327;28;20044;-76
2023/12/04 21:55:11;;;;;;;10.13;5.10;;;;;;;15.59;100.00;101375.84;10532604;28;20056;-76
2023/12/04 22:00:34;;;;;;;12.00;5.80;;;;;;;15.72;100.00;101375.91;10530477;28;20452;-76
2023/12/04 22:05:56;;;;;;;13.70;8.25;;;;;;;16.40;100.00;101375.25;10518039;28;20048;-76
2023/12/04 22:11:20;;;;;;;7.68;4.20;;;;;;;16.40;100.00;101369.91;10531938;28;20059;-75
2023/12/04 22:16:42;;;;;;;9.20;4.63;;;;;;;16.36;100.00;101362.78;10517588;28;20137;-77
2023/12/04 22:22:05;;;;;;;9.57;5.22;;;;;;;16.26;100.00;101355.66;10510637;28;20680;-76
2023/12/04 22:27:29;;;;;;;9.00;3.88;;;;;;;15.89;100.00;101358.22;10532538;28;20068;-76
2023/12/04 22:32:51;;;;;;;9.23;5.30;;;;;;;15.65;100.00;101355.47;10514081;28;20134;-76
2023/12/04 22:38:14;;;;;;;6.20;4.13;;;;;;;15.98;100.00;101362.69;10517924;28;20048;-76
2023/12/04 22:43:38;;;;;;;9.90;4.70;;;;;;;15.95;100.00;101352.91;10532048;28;20071;-76
2023/12/04 22:49:00;;;;;;;7.65;3.35;;;;;;;15.90;100.00;101344.03;10539153;28;20123;-76
2023/12/04 22:54:22;;;;;;;7.88;3.90;;;;;;;15.96;100.00;101343.16;10544061;28;20039;-77
2023/12/04 22:59:46;;;;;;;7.60;4.28;;;;;;;15.80;100.00;101339.56;10569868;28;20048;-75
2023/12/04 23:05:09;;;;;;;12.50;5.13;;;;;;;15.56;100.00;101339.44;10566782;28;20052;-76
2023/12/04 23:10:31;;;;;;;8.82;4.63;;;;;;;15.90;100.00;101335.13;10552661;28;20054;-76
2023/12/04 23:15:55;;;;;;;9.18;4.50;;;;;;;16.04;100.00;101338.72;10539720;28;20048;-76
2023/12/04 23:21:17;;;;;;;6.85;3.90;;;;;;;16.09;100.00;101336.06;10526060;28;20428;-76
2023/12/04 23:26:40;;;;;;;9.35;3.38;;;;;;;16.13;100.00;101336.09;10548364;28;20062;-76
2023/12/04 23:32:05;;;;;;;8.07;3.72;;;;;;;16.25;100.00;101349.44;10531211;28;20092;-77
2023/12/04 23:37:27;;;;;;;6.70;3.90;;;;;;;16.32;100.00;101340.56;10539725;28;20063;-76
2023/12/04 23:42:50;;;;;;;8.60;4.85;;;;;;;16.33;100.00;101341.47;10568495;28;20064;-76
2023/12/04 23:48:14;;;;;;;13.95;7.72;;;;;;;16.15;100.00;101346.75;10564475;28;20631;-76
2023/12/04 23:53:36;;;;;;;10.02;3.40;;;;;;;16.02;100.00;101335.16;10544497;28;20615;-76
2023/12/04 23:58:59;;;;;;;10.73;6.60;;;;;;;15.85;100.00;101340.47;10541212;28;20530;-75
